Terminal Aerodrome Forecast
Issued by NWS

Home | Current Version | Previous Version | Text Only | Print | Product List | Glossary On
Versions: 1 2 3 4 5 6 7 8 9 10 11 12 13
000
FTUS46 KEKA 050533
TAFCEC
TAF
KCEC 050533Z 0506/0606 13004KT P6SM SKC
     FM051200 00000KT 6SM BR SKC
     FM051500 10003KT P6SM SKC
     FM052100 30005KT P6SM SKC=

USA.gov is the U.S. government's official web portal to all federal, state and local government web resources and services.